Fairview, KY

11:58 AM CDT on August 30, 2014 (GMT -0500)
Coxmill rd | Change Station
CLOSE
Current Station
Personal Weather Station
Location: Hopkinsville, KY
Elevation: 554 ft
Nearby Weather Stations

Elev 554 ft 36.85 °N, 87.51 °W | Updated 15 minutes ago

Overcast
Overcast
81.1 °F
Feels Like 86 °F
N
1.0
Wind Variable Wind from WSW
Gusts 9.0 mph

Today
High -- | Low -- °F
--% Chance of Precip.
Yesterday
High -- | Low -- °F
Precip. -- in
6:19 AM 7:21 PM
Waxing Crescent, 23% visible
Pressure 30.08 in
Visibility 10.0 miles
Clouds Few 400 ft
Heat Index 86 °F
Dew Point 74 °F
Humidity 78%
Rainfall 0.00 in
Snow Depth Not available.
UV 9 out of 12
Pollen 8.00 out of 12
PM2.5 Moderate
Flu Activity Not available.
SPECI KHOP 301646Z AUTO 22010KT 10SM -DZ FEW004 26/23 A3008 RMK AO2

More Conditions Fewer Conditions

Pressure 30.08 in
Visibility 10.0 miles
Clouds Few 400 ft
Heat Index 86 °F
Dew Point 74 °F
Humidity 78%
Rainfall 0.00 in
Snow Depth Not available.
UV 9 out of 12
Pollen 8.00 out of 12
PM2.5 Moderate
Flu Activity Not available.
SPECI KHOP 301646Z AUTO 22010KT 10SM -DZ FEW004 26/23 A3008 RMK AO2

More Conditions Fewer Conditions

10-Day Weather Forecast

Almanac

Astronomy

Aug. 30, 2014 Rise Set
Actual Time 6:19 AM CDT 7:21 PM CDT
Civil Twilight 5:52 AM CDT 7:47 PM CDT
Nautical Twilight 5:20 AM CDT 8:19 PM CDT
Astronomical Twilight 4:48 AM CDT 8:51 PM CDT
Moon 10:58 AM CDT 10:03 PM CDT
Length of Visible Light 13h 55m
Length of Day
13h 01m
Tomorrow will be 2m 14s shorter.
Waxing Crescent, 23% of the Moon is Illuminated
Today
Waxing Crescent
Sep 2
First Quarter
Sep 8
Full
Sep 15
Last Quarter
Sep 24
New

Today's Extremes

State Highs State Lows

Community

WunderPhotos

Upload Photos

1,748,562 photos uploaded!

WunderBlogs® & News

Nearby

Air Quality

  Air Quality AQ Index Pollutant
Yesterday Moderate
OZONE
Yesterday Moderate
PM2.5
Current Moderate
PM2.5
Saturday Moderate
PM2.5
Saturday Good
OZONE
Sunday Good
PM2.5
Sunday Good
OZONE

Snow Depth

Station Depth Elevation
No new snow has been reported.

Earthquake Activity

City Distance Mag. Time & Date
No recent earthquake activity has been reported nearby.
Minimum magnitude displayed is 2.5.

Coastal Water Temperatures

Place Temperature
No Stations Reporting

Nearby Weather Stations